sensor_id;sensor_type;location;lat;lon;timestamp;P1;durP1;ratioP1;P2;durP2;ratioP2
59263;SDS011;45030;42.720;23.344;2023-04-25T00:00:19;5.57;;;2.78;;
59263;SDS011;45030;42.720;23.344;2023-04-25T00:02:44;3.90;;;2.13;;
59263;SDS011;45030;42.720;23.344;2023-04-25T00:05:09;4.25;;;2.53;;
59263;SDS011;45030;42.720;23.344;2023-04-25T00:07:35;5.35;;;2.35;;
59263;SDS011;45030;42.720;23.344;2023-04-25T00:10:00;5.13;;;2.78;;
59263;SDS011;45030;42.720;23.344;2023-04-25T00:12:25;4.68;;;2.88;;
59263;SDS011;45030;42.720;23.344;2023-04-25T00:14:53;5.53;;;3.28;;
59263;SDS011;45030;42.720;23.344;2023-04-25T00:17:21;6.47;;;3.42;;
59263;SDS011;45030;42.720;23.344;2023-04-25T00:19:47;6.70;;;4.00;;
59263;SDS011;45030;42.720;23.344;2023-04-25T00:22:13;5.68;;;3.13;;
59263;SDS011;45030;42.720;23.344;2023-04-25T00:24:38;4.75;;;3.13;;
59263;SDS011;45030;42.720;23.344;2023-04-25T00:27:03;5.60;;;3.50;;
59263;SDS011;45030;42.720;23.344;2023-04-25T00:29:29;5.72;;;3.92;;
59263;SDS011;45030;42.720;23.344;2023-04-25T00:31:54;6.82;;;3.58;;
59263;SDS011;45030;42.720;23.344;2023-04-25T00:34:19;4.70;;;2.85;;
59263;SDS011;45030;42.720;23.344;2023-04-25T00:36:45;7.90;;;4.40;;
59263;SDS011;45030;42.720;23.344;2023-04-25T00:39:11;7.18;;;3.50;;
59263;SDS011;45030;42.720;23.344;2023-04-25T00:41:36;6.90;;;3.70;;
59263;SDS011;45030;42.720;23.344;2023-04-25T00:44:02;5.88;;;3.40;;
59263;SDS011;45030;42.720;23.344;2023-04-25T00:46:28;8.52;;;4.05;;
59263;SDS011;45030;42.720;23.344;2023-04-25T00:48:53;7.05;;;3.78;;
59263;SDS011;45030;42.720;23.344;2023-04-25T00:51:19;6.03;;;3.63;;
59263;SDS011;45030;42.720;23.344;2023-04-25T00:53:45;6.35;;;3.72;;
59263;SDS011;45030;42.720;23.344;2023-04-25T00:56:11;9.35;;;4.82;;
59263;SDS011;45030;42.720;23.344;2023-04-25T00:58:36;7.38;;;4.40;;
59263;SDS011;45030;42.720;23.344;2023-04-25T01:01:02;8.38;;;4.15;;
59263;SDS011;45030;42.720;23.344;2023-04-25T01:03:27;7.32;;;4.55;;
59263;SDS011;45030;42.720;23.344;2023-04-25T01:05:54;5.82;;;3.67;;
59263;SDS011;45030;42.720;23.344;2023-04-25T01:08:21;5.28;;;3.53;;
59263;SDS011;45030;42.720;23.344;2023-04-25T01:10:48;6.80;;;3.75;;
59263;SDS011;45030;42.720;23.344;2023-04-25T01:13:13;7.63;;;4.57;;
59263;SDS011;45030;42.720;23.344;2023-04-25T01:15:39;7.88;;;4.90;;
59263;SDS011;45030;42.720;23.344;2023-04-25T01:18:05;7.68;;;4.93;;
59263;SDS011;45030;42.720;23.344;2023-04-25T01:20:31;8.10;;;5.25;;
59263;SDS011;45030;42.720;23.344;2023-04-25T01:22:57;7.70;;;4.78;;
59263;SDS011;45030;42.720;23.344;2023-04-25T01:25:22;9.50;;;5.57;;
59263;SDS011;45030;42.720;23.344;2023-04-25T01:27:48;10.30;;;5.43;;
59263;SDS011;45030;42.720;23.344;2023-04-25T01:30:13;10.45;;;5.65;;
59263;SDS011;45030;42.720;23.344;2023-04-25T01:32:39;7.55;;;4.05;;
59263;SDS011;45030;42.720;23.344;2023-04-25T01:35:09;8.45;;;4.28;;
59263;SDS011;45030;42.720;23.344;2023-04-25T01:37:38;6.57;;;4.40;;
59263;SDS011;45030;42.720;23.344;2023-04-25T01:40:04;9.93;;;5.45;;
59263;SDS011;45030;42.720;23.344;2023-04-25T01:42:31;7.35;;;4.38;;
59263;SDS011;45030;42.720;23.344;2023-04-25T01:44:56;8.80;;;4.75;;
59263;SDS011;45030;42.720;23.344;2023-04-25T01:47:21;7.57;;;4.35;;
59263;SDS011;45030;42.720;23.344;2023-04-25T01:49:46;7.65;;;4.00;;
59263;SDS011;45030;42.720;23.344;2023-04-25T01:52:11;7.43;;;4.35;;
59263;SDS011;45030;42.720;23.344;2023-04-25T01:54:37;8.10;;;4.88;;
59263;SDS011;45030;42.720;23.344;2023-04-25T01:57:02;7.55;;;4.82;;
59263;SDS011;45030;42.720;23.344;2023-04-25T01:59:28;9.48;;;4.43;;
59263;SDS011;45030;42.720;23.344;2023-04-25T02:01:53;6.78;;;3.92;;
59263;SDS011;45030;42.720;23.344;2023-04-25T02:04:18;9.38;;;5.05;;
59263;SDS011;45030;42.720;23.344;2023-04-25T02:06:44;7.15;;;4.53;;
59263;SDS011;45030;42.720;23.344;2023-04-25T02:09:09;4.93;;;3.22;;
59263;SDS011;45030;42.720;23.344;2023-04-25T02:11:34;6.28;;;4.05;;
59263;SDS011;45030;42.720;23.344;2023-04-25T02:14:00;23.38;;;12.05;;
59263;SDS011;45030;42.720;23.344;2023-04-25T02:16:25;8.48;;;4.35;;
59263;SDS011;45030;42.720;23.344;2023-04-25T02:18:50;8.65;;;5.35;;
59263;SDS011;45030;42.720;23.344;2023-04-25T02:21:17;8.88;;;5.13;;
59263;SDS011;45030;42.720;23.344;2023-04-25T02:23:42;9.50;;;5.65;;
59263;SDS011;45030;42.720;23.344;2023-04-25T02:26:08;11.18;;;5.35;;
59263;SDS011;45030;42.720;23.344;2023-04-25T02:28:33;8.48;;;4.90;;
59263;SDS011;45030;42.720;23.344;2023-04-25T02:30:58;13.85;;;6.22;;
59263;SDS011;45030;42.720;23.344;2023-04-25T02:33:23;15.23;;;6.60;;
59263;SDS011;45030;42.720;23.344;2023-04-25T02:35:49;13.63;;;6.85;;
59263;SDS011;45030;42.720;23.344;2023-04-25T02:38:14;16.83;;;7.10;;
59263;SDS011;45030;42.720;23.344;2023-04-25T02:40:40;12.48;;;7.47;;
59263;SDS011;45030;42.720;23.344;2023-04-25T02:43:05;12.57;;;7.90;;
59263;SDS011;45030;42.720;23.344;2023-04-25T02:45:30;13.98;;;7.55;;
59263;SDS011;45030;42.720;23.344;2023-04-25T02:47:56;12.07;;;5.80;;
59263;SDS011;45030;42.720;23.344;2023-04-25T02:50:21;9.02;;;5.22;;
59263;SDS011;45030;42.720;23.344;2023-04-25T02:52:46;10.57;;;6.50;;
59263;SDS011;45030;42.720;23.344;2023-04-25T02:55:12;10.68;;;5.75;;
59263;SDS011;45030;42.720;23.344;2023-04-25T02:57:37;10.90;;;6.45;;
59263;SDS011;45030;42.720;23.344;2023-04-25T03:00:03;10.70;;;5.95;;
59263;SDS011;45030;42.720;23.344;2023-04-25T03:02:30;12.73;;;7.43;;
59263;SDS011;45030;42.720;23.344;2023-04-25T03:04:56;11.50;;;7.00;;
59263;SDS011;45030;42.720;23.344;2023-04-25T03:07:21;9.05;;;6.28;;
59263;SDS011;45030;42.720;23.344;2023-04-25T03:09:47;11.40;;;6.97;;
59263;SDS011;45030;42.720;23.344;2023-04-25T03:12:13;11.40;;;6.53;;
59263;SDS011;45030;42.720;23.344;2023-04-25T03:14:38;14.23;;;7.70;;
59263;SDS011;45030;42.720;23.344;2023-04-25T03:17:03;24.83;;;11.57;;
59263;SDS011;45030;42.720;23.344;2023-04-25T03:19:29;30.15;;;16.70;;
59263;SDS011;45030;42.720;23.344;2023-04-25T03:21:54;24.67;;;15.85;;
59263;SDS011;45030;42.720;23.344;2023-04-25T03:24:19;20.35;;;13.20;;
59263;SDS011;45030;42.720;23.344;2023-04-25T03:26:44;21.88;;;12.98;;
59263;SDS011;45030;42.720;23.344;2023-04-25T03:29:10;15.88;;;8.60;;
59263;SDS011;45030;42.720;23.344;2023-04-25T03:31:35;16.02;;;9.73;;
59263;SDS011;45030;42.720;23.344;2023-04-25T03:34:00;17.52;;;10.35;;
59263;SDS011;45030;42.720;23.344;2023-04-25T03:36:25;20.50;;;10.25;;
59263;SDS011;45030;42.720;23.344;2023-04-25T03:38:51;14.68;;;7.15;;
59263;SDS011;45030;42.720;23.344;2023-04-25T03:41:16;18.75;;;10.40;;
59263;SDS011;45030;42.720;23.344;2023-04-25T03:43:41;15.50;;;9.98;;
59263;SDS011;45030;42.720;23.344;2023-04-25T03:46:06;15.90;;;9.00;;
59263;SDS011;45030;42.720;23.344;2023-04-25T03:48:32;15.65;;;9.82;;
59263;SDS011;45030;42.720;23.344;2023-04-25T03:50:57;15.88;;;9.32;;
59263;SDS011;45030;42.720;23.344;2023-04-25T03:53:22;21.83;;;10.85;;
59263;SDS011;45030;42.720;23.344;2023-04-25T03:55:47;19.25;;;11.50;;
59263;SDS011;45030;42.720;23.344;2023-04-25T03:58:13;25.90;;;12.07;;
59263;SDS011;45030;42.720;23.344;2023-04-25T04:00:38;24.88;;;13.63;;
59263;SDS011;45030;42.720;23.344;2023-04-25T04:03:03;25.25;;;14.68;;
59263;SDS011;45030;42.720;23.344;2023-04-25T04:05:28;48.10;;;26.63;;
59263;SDS011;45030;42.720;23.344;2023-04-25T04:07:54;53.00;;;29.73;;
59263;SDS011;45030;42.720;23.344;2023-04-25T04:10:20;81.45;;;45.13;;
59263;SDS011;45030;42.720;23.344;2023-04-25T04:12:45;68.97;;;37.80;;
59263;SDS011;45030;42.720;23.344;2023-04-25T04:15:10;50.78;;;30.00;;
59263;SDS011;45030;42.720;23.344;2023-04-25T04:17:35;51.97;;;29.77;;
59263;SDS011;45030;42.720;23.344;2023-04-25T04:20:01;40.10;;;21.77;;
59263;SDS011;45030;42.720;23.344;2023-04-25T04:22:28;32.30;;;20.13;;
59263;SDS011;45030;42.720;23.344;2023-04-25T04:24:53;19.38;;;11.50;;
59263;SDS011;45030;42.720;23.344;2023-04-25T04:27:19;30.25;;;16.45;;
59263;SDS011;45030;42.720;23.344;2023-04-25T04:29:45;24.52;;;13.60;;
59263;SDS011;45030;42.720;23.344;2023-04-25T04:32:10;19.23;;;10.07;;
59263;SDS011;45030;42.720;23.344;2023-04-25T04:34:36;15.95;;;8.40;;
59263;SDS011;45030;42.720;23.344;2023-04-25T04:37:01;14.60;;;8.63;;
59263;SDS011;45030;42.720;23.344;2023-04-25T04:39:26;12.45;;;7.38;;
59263;SDS011;45030;42.720;23.344;2023-04-25T04:41:52;13.32;;;6.95;;
59263;SDS011;45030;42.720;23.344;2023-04-25T04:44:17;13.90;;;7.55;;
59263;SDS011;45030;42.720;23.344;2023-04-25T04:46:42;14.65;;;7.90;;
59263;SDS011;45030;42.720;23.344;2023-04-25T04:49:09;11.25;;;7.22;;
59263;SDS011;45030;42.720;23.344;2023-04-25T04:51:35;18.48;;;8.93;;
59263;SDS011;45030;42.720;23.344;2023-04-25T04:54:00;12.18;;;8.07;;
59263;SDS011;45030;42.720;23.344;2023-04-25T04:56:28;13.90;;;8.10;;
59263;SDS011;45030;42.720;23.344;2023-04-25T04:58:54;12.07;;;7.78;;
59263;SDS011;45030;42.720;23.344;2023-04-25T05:01:19;9.60;;;5.97;;
59263;SDS011;45030;42.720;23.344;2023-04-25T05:03:45;11.18;;;6.28;;
59263;SDS011;45030;42.720;23.344;2023-04-25T05:06:10;11.40;;;6.72;;
59263;SDS011;45030;42.720;23.344;2023-04-25T05:08:36;10.35;;;6.60;;
59263;SDS011;45030;42.720;23.344;2023-04-25T05:11:01;10.15;;;6.53;;
59263;SDS011;45030;42.720;23.344;2023-04-25T05:13:26;10.00;;;6.40;;
59263;SDS011;45030;42.720;23.344;2023-04-25T05:15:52;8.00;;;4.72;;
59263;SDS011;45030;42.720;23.344;2023-04-25T05:18:17;9.70;;;5.38;;
59263;SDS011;45030;42.720;23.344;2023-04-25T05:20:42;8.07;;;4.93;;
59263;SDS011;45030;42.720;23.344;2023-04-25T05:23:07;12.77;;;6.80;;
59263;SDS011;45030;42.720;23.344;2023-04-25T05:25:33;10.65;;;6.20;;
59263;SDS011;45030;42.720;23.344;2023-04-25T05:27:58;12.60;;;6.85;;
59263;SDS011;45030;42.720;23.344;2023-04-25T05:30:23;10.05;;;5.53;;
59263;SDS011;45030;42.720;23.344;2023-04-25T05:32:48;11.02;;;7.13;;
59263;SDS011;45030;42.720;23.344;2023-04-25T05:35:14;9.70;;;6.13;;
59263;SDS011;45030;42.720;23.344;2023-04-25T05:37:39;11.30;;;7.70;;
59263;SDS011;45030;42.720;23.344;2023-04-25T05:40:04;11.30;;;7.07;;
59263;SDS011;45030;42.720;23.344;2023-04-25T05:42:31;11.57;;;6.68;;
59263;SDS011;45030;42.720;23.344;2023-04-25T05:44:57;10.02;;;6.07;;
59263;SDS011;45030;42.720;23.344;2023-04-25T05:47:22;8.27;;;5.47;;
59263;SDS011;45030;42.720;23.344;2023-04-25T05:49:47;9.40;;;4.97;;
59263;SDS011;45030;42.720;23.344;2023-04-25T05:52:12;10.50;;;5.30;;
59263;SDS011;45030;42.720;23.344;2023-04-25T05:54:38;11.02;;;5.13;;
59263;SDS011;45030;42.720;23.344;2023-04-25T05:57:03;10.65;;;4.78;;
59263;SDS011;45030;42.720;23.344;2023-04-25T05:59:28;10.02;;;4.90;;
59263;SDS011;45030;42.720;23.344;2023-04-25T06:01:53;10.48;;;4.43;;
59263;SDS011;45030;42.720;23.344;2023-04-25T06:04:19;10.57;;;4.75;;
59263;SDS011;45030;42.720;23.344;2023-04-25T06:06:45;17.67;;;6.40;;
59263;SDS011;45030;42.720;23.344;2023-04-25T06:09:10;16.17;;;4.10;;
59263;SDS011;45030;42.720;23.344;2023-04-25T06:11:35;10.07;;;4.97;;
59263;SDS011;45030;42.720;23.344;2023-04-25T06:14:00;12.50;;;4.50;;
59263;SDS011;45030;42.720;23.344;2023-04-25T06:16:26;14.52;;;3.75;;
59263;SDS011;45030;42.720;23.344;2023-04-25T06:18:51;9.88;;;4.20;;
59263;SDS011;45030;42.720;23.344;2023-04-25T06:21:16;7.70;;;3.70;;
59263;SDS011;45030;42.720;23.344;2023-04-25T06:23:42;9.10;;;4.68;;
59263;SDS011;45030;42.720;23.344;2023-04-25T06:26:07;8.18;;;4.20;;
59263;SDS011;45030;42.720;23.344;2023-04-25T06:28:32;11.90;;;5.03;;
59263;SDS011;45030;42.720;23.344;2023-04-25T06:30:57;8.02;;;4.70;;
59263;SDS011;45030;42.720;23.344;2023-04-25T06:33:22;10.40;;;5.72;;
59263;SDS011;45030;42.720;23.344;2023-04-25T06:35:49;11.82;;;5.35;;
59263;SDS011;45030;42.720;23.344;2023-04-25T06:38:15;14.88;;;5.22;;
59263;SDS011;45030;42.720;23.344;2023-04-25T06:40:40;15.40;;;5.32;;
59263;SDS011;45030;42.720;23.344;2023-04-25T06:43:05;13.15;;;6.15;;
59263;SDS011;45030;42.720;23.344;2023-04-25T06:45:30;16.13;;;6.03;;
59263;SDS011;45030;42.720;23.344;2023-04-25T06:47:56;10.98;;;5.00;;
59263;SDS011;45030;42.720;23.344;2023-04-25T06:50:21;14.07;;;5.05;;
59263;SDS011;45030;42.720;23.344;2023-04-25T06:52:46;10.43;;;6.28;;
59263;SDS011;45030;42.720;23.344;2023-04-25T06:55:11;12.70;;;6.40;;
59263;SDS011;45030;42.720;23.344;2023-04-25T06:57:37;9.82;;;4.30;;
59263;SDS011;45030;42.720;23.344;2023-04-25T07:00:02;7.07;;;4.22;;
59263;SDS011;45030;42.720;23.344;2023-04-25T07:02:30;6.07;;;3.80;;
59263;SDS011;45030;42.720;23.344;2023-04-25T07:04:55;7.03;;;4.45;;
59263;SDS011;45030;42.720;23.344;2023-04-25T07:07:24;7.63;;;4.72;;
59263;SDS011;45030;42.720;23.344;2023-04-25T07:09:50;8.25;;;4.07;;
59263;SDS011;45030;42.720;23.344;2023-04-25T07:12:15;8.77;;;4.25;;
59263;SDS011;45030;42.720;23.344;2023-04-25T07:14:40;7.35;;;4.43;;
59263;SDS011;45030;42.720;23.344;2023-04-25T07:17:06;5.70;;;3.72;;
59263;SDS011;45030;42.720;23.344;2023-04-25T07:19:32;5.65;;;4.07;;
59263;SDS011;45030;42.720;23.344;2023-04-25T07:21:58;8.48;;;4.57;;
59263;SDS011;45030;42.720;23.344;2023-04-25T07:24:23;6.57;;;4.07;;
59263;SDS011;45030;42.720;23.344;2023-04-25T07:26:48;7.28;;;4.38;;
59263;SDS011;45030;42.720;23.344;2023-04-25T07:29:13;6.88;;;4.82;;
59263;SDS011;45030;42.720;23.344;2023-04-25T07:31:39;9.80;;;6.32;;
59263;SDS011;45030;42.720;23.344;2023-04-25T07:34:04;11.00;;;6.35;;
59263;SDS011;45030;42.720;23.344;2023-04-25T07:36:30;9.88;;;5.70;;
59263;SDS011;45030;42.720;23.344;2023-04-25T07:38:56;7.18;;;5.10;;
59263;SDS011;45030;42.720;23.344;2023-04-25T07:41:21;8.60;;;5.13;;
59263;SDS011;45030;42.720;23.344;2023-04-25T07:43:46;5.95;;;3.50;;
59263;SDS011;45030;42.720;23.344;2023-04-25T07:46:11;5.97;;;3.63;;
59263;SDS011;45030;42.720;23.344;2023-04-25T07:48:37;6.32;;;3.70;;
59263;SDS011;45030;42.720;23.344;2023-04-25T07:51:02;4.50;;;3.20;;
59263;SDS011;45030;42.720;23.344;2023-04-25T07:53:29;6.05;;;3.53;;
59263;SDS011;45030;42.720;23.344;2023-04-25T07:55:55;5.50;;;3.90;;
59263;SDS011;45030;42.720;23.344;2023-04-25T07:58:20;5.13;;;3.90;;
59263;SDS011;45030;42.720;23.344;2023-04-25T08:00:47;5.13;;;3.72;;
59263;SDS011;45030;42.720;23.344;2023-04-25T08:03:12;4.68;;;3.55;;
59263;SDS011;45030;42.720;23.344;2023-04-25T08:05:37;6.45;;;3.83;;
59263;SDS011;45030;42.720;23.344;2023-04-25T08:08:03;5.10;;;3.80;;
59263;SDS011;45030;42.720;23.344;2023-04-25T08:10:29;5.72;;;3.65;;
59263;SDS011;45030;42.720;23.344;2023-04-25T08:12:54;6.35;;;4.25;;
59263;SDS011;45030;42.720;23.344;2023-04-25T08:15:20;6.43;;;3.78;;
59263;SDS011;45030;42.720;23.344;2023-04-25T08:17:45;11.70;;;4.72;;
59263;SDS011;45030;42.720;23.344;2023-04-25T08:20:10;9.65;;;4.13;;
59263;SDS011;45030;42.720;23.344;2023-04-25T08:22:36;25.98;;;5.75;;
59263;SDS011;45030;42.720;23.344;2023-04-25T08:25:01;5.80;;;4.05;;
59263;SDS011;45030;42.720;23.344;2023-04-25T08:27:26;7.72;;;4.22;;
59263;SDS011;45030;42.720;23.344;2023-04-25T08:29:51;7.10;;;4.23;;
59263;SDS011;45030;42.720;23.344;2023-04-25T08:32:18;7.38;;;4.43;;
59263;SDS011;45030;42.720;23.344;2023-04-25T08:34:43;9.68;;;5.32;;
59263;SDS011;45030;42.720;23.344;2023-04-25T08:37:09;12.15;;;5.80;;
59263;SDS011;45030;42.720;23.344;2023-04-25T08:39:35;13.10;;;4.57;;
59263;SDS011;45030;42.720;23.344;2023-04-25T08:42:00;7.60;;;5.13;;
59263;SDS011;45030;42.720;23.344;2023-04-25T08:44:25;10.93;;;6.60;;
59263;SDS011;45030;42.720;23.344;2023-04-25T08:46:51;10.88;;;6.32;;
59263;SDS011;45030;42.720;23.344;2023-04-25T08:49:17;12.18;;;7.22;;
59263;SDS011;45030;42.720;23.344;2023-04-25T08:51:44;10.27;;;6.40;;
59263;SDS011;45030;42.720;23.344;2023-04-25T08:54:11;14.98;;;9.15;;
59263;SDS011;45030;42.720;23.344;2023-04-25T08:56:38;11.65;;;7.38;;
59263;SDS011;45030;42.720;23.344;2023-04-25T08:59:03;10.30;;;6.07;;
59263;SDS011;45030;42.720;23.344;2023-04-25T09:01:29;6.07;;;5.18;;
59263;SDS011;45030;42.720;23.344;2023-04-25T09:03:55;8.32;;;4.88;;
59263;SDS011;45030;42.720;23.344;2023-04-25T09:06:20;8.82;;;4.80;;
59263;SDS011;45030;42.720;23.344;2023-04-25T09:08:46;6.68;;;4.00;;
59263;SDS011;45030;42.720;23.344;2023-04-25T09:11:12;6.45;;;4.30;;
59263;SDS011;45030;42.720;23.344;2023-04-25T09:13:38;5.15;;;3.72;;
59263;SDS011;45030;42.720;23.344;2023-04-25T09:16:03;9.98;;;4.38;;
59263;SDS011;45030;42.720;23.344;2023-04-25T09:18:29;5.75;;;4.05;;
59263;SDS011;45030;42.720;23.344;2023-04-25T09:20:55;4.32;;;3.47;;
59263;SDS011;45030;42.720;23.344;2023-04-25T09:23:21;5.85;;;3.70;;
59263;SDS011;45030;42.720;23.344;2023-04-25T09:25:51;5.70;;;3.05;;
59263;SDS011;45030;42.720;23.344;2023-04-25T09:28:16;4.22;;;2.80;;
59263;SDS011;45030;42.720;23.344;2023-04-25T09:30:47;4.10;;;2.53;;
59263;SDS011;45030;42.720;23.344;2023-04-25T09:33:12;4.00;;;2.65;;
59263;SDS011;45030;42.720;23.344;2023-04-25T09:35:38;4.47;;;2.97;;
59263;SDS011;45030;42.720;23.344;2023-04-25T09:38:14;5.60;;;3.08;;
59263;SDS011;45030;42.720;23.344;2023-04-25T09:40:40;3.00;;;2.00;;
59263;SDS011;45030;42.720;23.344;2023-04-25T09:43:09;4.80;;;2.35;;
59263;SDS011;45030;42.720;23.344;2023-04-25T09:45:42;3.30;;;2.20;;
59263;SDS011;45030;42.720;23.344;2023-04-25T09:48:11;4.13;;;2.63;;
59263;SDS011;45030;42.720;23.344;2023-04-25T09:50:36;4.35;;;2.97;;
59263;SDS011;45030;42.720;23.344;2023-04-25T09:53:04;2.88;;;2.35;;
59263;SDS011;45030;42.720;23.344;2023-04-25T09:55:31;2.80;;;1.70;;
59263;SDS011;45030;42.720;23.344;2023-04-25T09:57:57;2.38;;;1.90;;
59263;SDS011;45030;42.720;23.344;2023-04-25T10:00:25;4.03;;;2.03;;
59263;SDS011;45030;42.720;23.344;2023-04-25T10:02:50;2.75;;;1.65;;
59263;SDS011;45030;42.720;23.344;2023-04-25T10:05:16;2.55;;;1.65;;
59263;SDS011;45030;42.720;23.344;2023-04-25T10:07:42;5.60;;;1.95;;
59263;SDS011;45030;42.720;23.344;2023-04-25T10:10:08;1.90;;;1.40;;
59263;SDS011;45030;42.720;23.344;2023-04-25T10:12:33;2.65;;;1.48;;
59263;SDS011;45030;42.720;23.344;2023-04-25T10:14:59;1.50;;;1.35;;
59263;SDS011;45030;42.720;23.344;2023-04-25T10:17:26;3.40;;;1.65;;
59263;SDS011;45030;42.720;23.344;2023-04-25T10:19:52;3.58;;;2.03;;
59263;SDS011;45030;42.720;23.344;2023-04-25T10:22:20;3.17;;;1.33;;
59263;SDS011;45030;42.720;23.344;2023-04-25T10:24:48;2.70;;;1.30;;
59263;SDS011;45030;42.720;23.344;2023-04-25T10:27:14;5.38;;;1.33;;
59263;SDS011;45030;42.720;23.344;2023-04-25T10:29:40;2.58;;;1.30;;
59263;SDS011;45030;42.720;23.344;2023-04-25T10:32:08;1.60;;;1.20;;
59263;SDS011;45030;42.720;23.344;2023-04-25T10:34:43;1.63;;;0.77;;
59263;SDS011;45030;42.720;23.344;2023-04-25T10:37:11;1.35;;;0.80;;
59263;SDS011;45030;42.720;23.344;2023-04-25T10:39:38;3.53;;;1.17;;
59263;SDS011;45030;42.720;23.344;2023-04-25T10:42:03;5.97;;;1.58;;
59263;SDS011;45030;42.720;23.344;2023-04-25T10:44:29;5.13;;;2.10;;
59263;SDS011;45030;42.720;23.344;2023-04-25T10:46:58;3.53;;;1.55;;
59263;SDS011;45030;42.720;23.344;2023-04-25T10:49:31;4.00;;;2.65;;
59263;SDS011;45030;42.720;23.344;2023-04-25T10:52:16;3.05;;;1.77;;
59263;SDS011;45030;42.720;23.344;2023-04-25T10:54:43;2.25;;;1.48;;
59263;SDS011;45030;42.720;23.344;2023-04-25T11:00:14;2.92;;;1.70;;
59263;SDS011;45030;42.720;23.344;2023-04-25T11:02:41;3.72;;;1.98;;
59263;SDS011;45030;42.720;23.344;2023-04-25T11:05:08;6.75;;;2.05;;
59263;SDS011;45030;42.720;23.344;2023-04-25T11:10:08;4.18;;;2.10;;
59263;SDS011;45030;42.720;23.344;2023-04-25T11:12:33;2.05;;;0.80;;
59263;SDS011;45030;42.720;23.344;2023-04-25T11:14:59;1.30;;;0.63;;
59263;SDS011;45030;42.720;23.344;2023-04-25T11:17:26;1.55;;;0.82;;
59263;SDS011;45030;42.720;23.344;2023-04-25T11:19:51;4.32;;;1.38;;
59263;SDS011;45030;42.720;23.344;2023-04-25T11:22:16;1.85;;;0.55;;
59263;SDS011;45030;42.720;23.344;2023-04-25T11:24:41;1.33;;;0.65;;
59263;SDS011;45030;42.720;23.344;2023-04-25T11:27:07;3.30;;;1.10;;
59263;SDS011;45030;42.720;23.344;2023-04-25T11:29:33;2.50;;;1.13;;
59263;SDS011;45030;42.720;23.344;2023-04-25T11:31:59;3.22;;;1.20;;
59263;SDS011;45030;42.720;23.344;2023-04-25T11:34:25;2.20;;;1.10;;
59263;SDS011;45030;42.720;23.344;2023-04-25T11:36:51;6.30;;;2.22;;
59263;SDS011;45030;42.720;23.344;2023-04-25T11:39:19;4.78;;;1.85;;
59263;SDS011;45030;42.720;23.344;2023-04-25T11:41:45;2.63;;;0.70;;
59263;SDS011;45030;42.720;23.344;2023-04-25T11:44:11;1.27;;;0.90;;
59263;SDS011;45030;42.720;23.344;2023-04-25T11:46:36;2.35;;;1.13;;
59263;SDS011;45030;42.720;23.344;2023-04-25T11:49:02;1.83;;;1.05;;
59263;SDS011;45030;42.720;23.344;2023-04-25T11:51:27;2.17;;;1.58;;
59263;SDS011;45030;42.720;23.344;2023-04-25T11:53:52;1.23;;;0.85;;
59263;SDS011;45030;42.720;23.344;2023-04-25T11:56:18;1.20;;;1.00;;
59263;SDS011;45030;42.720;23.344;2023-04-25T11:59:02;1.33;;;0.98;;
59263;SDS011;45030;42.720;23.344;2023-04-25T12:01:28;2.58;;;0.82;;
59263;SDS011;45030;42.720;23.344;2023-04-25T12:03:55;0.93;;;0.77;;
59263;SDS011;45030;42.720;23.344;2023-04-25T12:06:20;3.50;;;1.42;;
59263;SDS011;45030;42.720;23.344;2023-04-25T12:09:01;2.95;;;1.00;;
59263;SDS011;45030;42.720;23.344;2023-04-25T12:11:28;2.45;;;0.90;;
59263;SDS011;45030;42.720;23.344;2023-04-25T12:13:54;2.95;;;0.68;;
59263;SDS011;45030;42.720;23.344;2023-04-25T12:16:20;2.13;;;1.17;;
59263;SDS011;45030;42.720;23.344;2023-04-25T12:18:45;2.65;;;1.27;;
59263;SDS011;45030;42.720;23.344;2023-04-25T12:21:10;3.03;;;1.17;;
59263;SDS011;45030;42.720;23.344;2023-04-25T12:23:38;2.08;;;0.85;;
59263;SDS011;45030;42.720;23.344;2023-04-25T12:26:03;4.07;;;1.75;;
59263;SDS011;45030;42.720;23.344;2023-04-25T12:28:28;3.03;;;1.20;;
59263;SDS011;45030;42.720;23.344;2023-04-25T12:31:04;1.25;;;0.80;;
59263;SDS011;45030;42.720;23.344;2023-04-25T12:33:33;1.77;;;0.90;;
59263;SDS011;45030;42.720;23.344;2023-04-25T12:35:59;4.30;;;1.33;;
59263;SDS011;45030;42.720;23.344;2023-04-25T12:40:50;3.28;;;1.92;;
59263;SDS011;45030;42.720;23.344;2023-04-25T12:43:16;6.20;;;2.20;;
59263;SDS011;45030;42.720;23.344;2023-04-25T12:45:42;6.38;;;2.40;;
59263;SDS011;45030;42.720;23.344;2023-04-25T12:48:07;7.00;;;2.83;;
59263;SDS011;45030;42.720;23.344;2023-04-25T12:50:33;7.82;;;2.83;;
59263;SDS011;45030;42.720;23.344;2023-04-25T12:52:58;4.22;;;2.25;;
59263;SDS011;45030;42.720;23.344;2023-04-25T12:55:23;6.07;;;3.80;;
59263;SDS011;45030;42.720;23.344;2023-04-25T12:57:48;6.55;;;3.10;;
59263;SDS011;45030;42.720;23.344;2023-04-25T13:00:14;7.03;;;3.15;;
59263;SDS011;45030;42.720;23.344;2023-04-25T13:02:40;5.63;;;2.53;;
59263;SDS011;45030;42.720;23.344;2023-04-25T13:05:06;3.53;;;2.63;;
59263;SDS011;45030;42.720;23.344;2023-04-25T13:07:31;3.60;;;2.50;;
59263;SDS011;45030;42.720;23.344;2023-04-25T13:09:56;2.42;;;1.38;;
59263;SDS011;45030;42.720;23.344;2023-04-25T13:12:21;2.08;;;1.50;;
59263;SDS011;45030;42.720;23.344;2023-04-25T13:14:47;2.10;;;1.42;;
59263;SDS011;45030;42.720;23.344;2023-04-25T13:17:12;3.55;;;1.50;;
59263;SDS011;45030;42.720;23.344;2023-04-25T13:19:37;3.22;;;1.92;;
59263;SDS011;45030;42.720;23.344;2023-04-25T13:22:03;3.05;;;1.60;;
59263;SDS011;45030;42.720;23.344;2023-04-25T13:24:29;3.38;;;2.00;;
59263;SDS011;45030;42.720;23.344;2023-04-25T13:26:54;5.13;;;2.38;;
59263;SDS011;45030;42.720;23.344;2023-04-25T13:29:20;4.68;;;2.70;;
59263;SDS011;45030;42.720;23.344;2023-04-25T13:31:45;6.47;;;2.70;;
59263;SDS011;45030;42.720;23.344;2023-04-25T13:34:10;5.70;;;3.78;;
59263;SDS011;45030;42.720;23.344;2023-04-25T13:36:37;5.00;;;3.80;;
59263;SDS011;45030;42.720;23.344;2023-04-25T13:39:03;5.40;;;3.45;;
59263;SDS011;45030;42.720;23.344;2023-04-25T13:41:29;5.20;;;3.50;;
59263;SDS011;45030;42.720;23.344;2023-04-25T13:43:54;5.68;;;2.90;;
59263;SDS011;45030;42.720;23.344;2023-04-25T13:46:20;4.63;;;2.97;;
59263;SDS011;45030;42.720;23.344;2023-04-25T13:48:45;5.22;;;3.15;;
59263;SDS011;45030;42.720;23.344;2023-04-25T13:51:13;6.43;;;3.90;;
59263;SDS011;45030;42.720;23.344;2023-04-25T13:53:39;5.18;;;3.20;;
59263;SDS011;45030;42.720;23.344;2023-04-25T13:56:04;5.18;;;3.50;;
59263;SDS011;45030;42.720;23.344;2023-04-25T13:58:30;7.45;;;3.35;;
59263;SDS011;45030;42.720;23.344;2023-04-25T14:00:55;3.80;;;2.33;;
59263;SDS011;45030;42.720;23.344;2023-04-25T14:03:21;4.40;;;2.80;;
59263;SDS011;45030;42.720;23.344;2023-04-25T14:05:46;4.93;;;2.92;;
59263;SDS011;45030;42.720;23.344;2023-04-25T14:08:11;4.88;;;2.50;;
59263;SDS011;45030;42.720;23.344;2023-04-25T14:10:37;4.00;;;2.53;;
59263;SDS011;45030;42.720;23.344;2023-04-25T14:13:02;4.65;;;2.40;;
59263;SDS011;45030;42.720;23.344;2023-04-25T14:15:28;4.57;;;2.42;;
59263;SDS011;45030;42.720;23.344;2023-04-25T14:17:53;3.60;;;2.00;;
59263;SDS011;45030;42.720;23.344;2023-04-25T14:20:19;3.42;;;1.80;;
59263;SDS011;45030;42.720;23.344;2023-04-25T14:22:46;4.97;;;1.77;;
59263;SDS011;45030;42.720;23.344;2023-04-25T14:25:11;5.70;;;2.17;;
59263;SDS011;45030;42.720;23.344;2023-04-25T14:27:36;6.43;;;1.83;;